createdAt,value
2022-12-04T00:00:15.933Z,97503.88
2022-12-04T00:02:44.689Z,97488.63
2022-12-04T00:05:14.097Z,97493.69
2022-12-04T00:07:44.531Z,97489.56
2022-12-04T00:10:17.157Z,97484.91
2022-12-04T00:12:46.299Z,97477.53
2022-12-04T00:15:27.009Z,97491.63
2022-12-04T00:17:59.735Z,97478.47
2022-12-04T00:20:28.533Z,97474.78
2022-12-04T00:22:58.103Z,97467.34
2022-12-04T00:25:27.098Z,97466.44
2022-12-04T00:27:57.181Z,97464.81
2022-12-04T00:30:27.557Z,97468.50
2022-12-04T00:32:59.067Z,97470.63
2022-12-04T00:35:27.863Z,97470.00
2022-12-04T00:37:57.080Z,97477.06
2022-12-04T00:40:26.782Z,97475.91
2022-12-04T00:42:57.134Z,97475.50
2022-12-04T00:45:27.328Z,97467.69
2022-12-04T00:47:56.412Z,97472.94
2022-12-04T00:50:28.502Z,97467.84
2022-12-04T00:52:58.184Z,97458.28
2022-12-04T00:55:29.458Z,97456.28
2022-12-04T00:58:00.014Z,97456.63
2022-12-04T01:00:30.723Z,97461.59
2022-12-04T01:03:01.613Z,97460.63
2022-12-04T01:05:42.773Z,97455.66
2022-12-04T01:08:12.348Z,97456.50
2022-12-04T01:10:42.580Z,97449.66
2022-12-04T01:13:12.575Z,97454.25
2022-12-04T01:15:45.624Z,97458.34
2022-12-04T01:18:14.916Z,97460.56
2022-12-04T01:20:49.006Z,97465.53
2022-12-04T01:23:19.173Z,97456.63
2022-12-04T01:25:57.129Z,97450.28
2022-12-04T01:28:26.468Z,97448.66
2022-12-04T01:31:04.828Z,97449.22
2022-12-04T01:33:36.375Z,97460.91
2022-12-04T01:36:09.991Z,97456.22
2022-12-04T01:38:40.746Z,97453.34
2022-12-04T01:41:16.126Z,97446.50
2022-12-04T01:43:48.686Z,97449.78
2022-12-04T01:49:02.735Z,97452.84
2022-12-04T01:51:35.163Z,97452.66
2022-12-04T01:54:07.343Z,97452.28
2022-12-04T01:56:43.402Z,97447.84
2022-12-04T01:59:19.236Z,97445.72
2022-12-04T02:01:53.878Z,97442.22
2022-12-04T02:04:22.677Z,97441.91
2022-12-04T02:06:51.382Z,97432.19
2022-12-04T02:09:26.679Z,97440.25
2022-12-04T02:11:59.816Z,97443.19
2022-12-04T02:14:34.759Z,97440.84
2022-12-04T02:17:13.252Z,97449.56
2022-12-04T02:20:02.204Z,97443.97
2022-12-04T02:22:40.792Z,97444.00
2022-12-04T02:25:13.798Z,97443.09
2022-12-04T02:28:04.514Z,97437.34
2022-12-04T02:30:34.183Z,97445.75
2022-12-04T02:33:05.270Z,97442.19
2022-12-04T02:35:38.069Z,97443.31
2022-12-04T02:38:14.068Z,97442.88
2022-12-04T02:40:49.150Z,97440.91
2022-12-04T02:43:23.814Z,97440.63
2022-12-04T02:45:57.126Z,97444.56
2022-12-04T02:48:25.900Z,97448.00
2022-12-04T02:50:55.688Z,97443.03
2022-12-04T02:53:28.036Z,97442.09
2022-12-04T02:56:04.068Z,97439.06
2022-12-04T02:58:38.303Z,97441.16
2022-12-04T03:01:20.025Z,97446.19
2022-12-04T03:03:50.609Z,97437.34
2022-12-04T03:06:20.313Z,97447.38
2022-12-04T03:08:52.007Z,97444.66
2022-12-04T03:11:21.105Z,97449.09
2022-12-04T03:13:53.097Z,97448.78
2022-12-04T03:16:25.346Z,97459.69
2022-12-04T03:18:57.049Z,97454.03
2022-12-04T03:21:30.338Z,97455.44
2022-12-04T03:24:01.528Z,97453.53
2022-12-04T03:26:37.223Z,97455.09
2022-12-04T03:29:19.178Z,97462.63
2022-12-04T03:31:50.563Z,97453.06
2022-12-04T03:34:27.811Z,97451.59
2022-12-04T03:36:58.852Z,97453.19
2022-12-04T03:39:31.547Z,97455.19
2022-12-04T03:42:01.771Z,97449.69
2022-12-04T03:44:35.342Z,97448.66
2022-12-04T03:47:07.142Z,97445.81
2022-12-04T03:49:41.912Z,97447.34
2022-12-04T03:52:14.792Z,97447.59
2022-12-04T03:54:49.297Z,97446.00
2022-12-04T03:57:20.464Z,97446.53
2022-12-04T03:59:55.907Z,97451.28
2022-12-04T04:02:26.530Z,97454.06
2022-12-04T04:04:58.584Z,97450.56
2022-12-04T04:07:35.315Z,97453.06
2022-12-04T04:10:08.075Z,97459.50
2022-12-04T04:12:41.482Z,97456.88
2022-12-04T04:15:28.588Z,97463.28
2022-12-04T04:18:12.017Z,97460.34
2022-12-04T04:20:58.368Z,97462.94
2022-12-04T04:23:40.832Z,97459.06
2022-12-04T04:26:09.548Z,97454.38
2022-12-04T04:28:39.419Z,97453.31
2022-12-04T04:31:14.500Z,97456.63
2022-12-04T04:33:49.192Z,97456.97
2022-12-04T04:36:25.151Z,97453.13
2022-12-04T04:39:01.702Z,97442.06
2022-12-04T04:41:38.479Z,97443.56
2022-12-04T04:44:12.504Z,97445.47
2022-12-04T04:46:46.741Z,97435.84
2022-12-04T04:49:18.637Z,97437.41
2022-12-04T04:51:47.394Z,97436.16
2022-12-04T04:54:16.674Z,97433.06
2022-12-04T04:56:46.500Z,97429.19
2022-12-04T04:59:15.421Z,97429.13
2022-12-04T05:01:46.920Z,97421.41
2022-12-04T05:04:16.011Z,97433.28
2022-12-04T05:06:45.261Z,97429.19
2022-12-04T05:09:14.578Z,97431.34
2022-12-04T05:11:43.365Z,97434.28
2022-12-04T05:14:12.881Z,97425.69
2022-12-04T05:16:42.149Z,97423.97
2022-12-04T05:19:27.737Z,97427.78
2022-12-04T05:21:57.449Z,97432.59
2022-12-04T05:24:26.110Z,97430.75
2022-12-04T05:26:54.870Z,97430.94
2022-12-04T05:29:23.616Z,97429.25
2022-12-04T05:31:52.360Z,97428.59
2022-12-04T05:34:22.621Z,97429.84
2022-12-04T05:36:51.665Z,97429.78
2022-12-04T05:39:20.629Z,97422.72
2022-12-04T05:41:50.887Z,97425.69
2022-12-04T05:44:19.790Z,97431.75
2022-12-04T05:46:48.958Z,97433.38
2022-12-04T05:49:17.929Z,97427.97
2022-12-04T05:51:48.196Z,97433.59
2022-12-04T05:54:27.292Z,97431.03
2022-12-04T05:56:56.500Z,97430.22
2022-12-04T05:59:25.690Z,97433.97
2022-12-04T06:01:54.900Z,97438.50
2022-12-04T06:04:23.814Z,97431.59
2022-12-04T06:06:54.822Z,97429.31
2022-12-04T06:09:24.762Z,97431.75
2022-12-04T06:11:56.657Z,97425.56
2022-12-04T06:14:25.413Z,97434.81
2022-12-04T06:16:55.361Z,97440.28
2022-12-04T06:19:24.391Z,97439.91
2022-12-04T06:21:54.821Z,97437.41
2022-12-04T06:24:24.386Z,97443.91
2022-12-04T06:27:25.626Z,97434.69
2022-12-04T06:29:43.229Z,97437.03
2022-12-04T06:32:15.256Z,97445.56
2022-12-04T06:34:48.889Z,97429.31
2022-12-04T06:37:19.952Z,97434.81
2022-12-04T06:39:49.080Z,97439.09
2022-12-04T06:42:17.910Z,97442.84
2022-12-04T06:44:46.731Z,97436.28
2022-12-04T06:47:15.395Z,97440.00
2022-12-04T06:49:46.219Z,97441.44
2022-12-04T06:52:15.150Z,97438.91
2022-12-04T06:54:45.245Z,97449.13
2022-12-04T06:57:14.056Z,97451.63
2022-12-04T06:59:42.713Z,97455.75
2022-12-04T07:02:12.004Z,97453.47
2022-12-04T07:04:40.718Z,97447.25
2022-12-04T07:07:10.321Z,97446.78
2022-12-04T07:09:39.101Z,97451.53
2022-12-04T07:12:09.918Z,97451.13
2022-12-04T07:14:38.877Z,97450.19
2022-12-04T07:17:07.677Z,97450.47
2022-12-04T07:19:36.399Z,97451.66
2022-12-04T07:22:05.164Z,97448.31
2022-12-04T07:24:34.038Z,97453.44
2022-12-04T07:27:02.778Z,97451.59
2022-12-04T07:29:32.932Z,97454.19
2022-12-04T07:32:03.038Z,97443.72
2022-12-04T07:34:32.126Z,97452.22
2022-12-04T07:37:00.802Z,97449.22
2022-12-04T07:39:29.739Z,97448.44
2022-12-04T07:41:59.770Z,97443.44
2022-12-04T07:44:28.456Z,97451.44
2022-12-04T07:46:58.796Z,97454.97
2022-12-04T07:49:28.360Z,97454.81
2022-12-04T07:51:58.395Z,97461.84
2022-12-04T07:54:27.148Z,97461.91
2022-12-04T07:56:55.868Z,97463.97
2022-12-04T07:59:24.657Z,97460.38
2022-12-04T08:01:56.050Z,97454.06
2022-12-04T08:04:27.344Z,97457.78
2022-12-04T08:06:57.096Z,97467.56
2022-12-04T08:09:29.685Z,97465.97
2022-12-04T08:12:01.050Z,97467.03
2022-12-04T08:14:29.870Z,97466.25
2022-12-04T08:17:01.520Z,97468.44
2022-12-04T08:19:32.572Z,97471.56
2022-12-04T08:22:01.313Z,97479.88
2022-12-04T08:24:30.426Z,97480.94
2022-12-04T08:27:02.706Z,97483.19
2022-12-04T08:29:32.125Z,97485.19
2022-12-04T08:32:00.920Z,97479.16
2022-12-04T08:34:34.049Z,97480.97
2022-12-04T08:37:02.852Z,97478.38
2022-12-04T08:39:31.618Z,97475.72
2022-12-04T08:42:00.691Z,97479.91
2022-12-04T08:44:47.655Z,97477.84
2022-12-04T08:47:16.570Z,97483.13
2022-12-04T08:49:47.196Z,97479.56
2022-12-04T08:52:15.871Z,97477.91
2022-12-04T08:54:45.667Z,97472.66
2022-12-04T08:57:14.533Z,97475.59
2022-12-04T08:59:43.322Z,97478.59
2022-12-04T09:02:13.301Z,97479.84
2022-12-04T09:04:43.157Z,97473.25
2022-12-04T09:07:13.286Z,97461.16
2022-12-04T09:09:48.064Z,97459.66
2022-12-04T09:12:17.253Z,97455.63
2022-12-04T09:14:47.446Z,97453.91
2022-12-04T09:17:17.117Z,97447.97
2022-12-04T09:19:46.528Z,97454.50
2022-12-04T09:22:16.813Z,97460.84
2022-12-04T09:24:48.724Z,97467.44
2022-12-04T09:27:17.509Z,97462.22
2022-12-04T09:29:54.969Z,97473.63
2022-12-04T09:32:25.052Z,97473.25
2022-12-04T09:34:53.985Z,97482.81
2022-12-04T09:37:24.194Z,97487.69
2022-12-04T09:39:53.803Z,97483.59
2022-12-04T09:42:32.057Z,97491.44
2022-12-04T09:45:03.986Z,97491.34
2022-12-04T09:47:34.858Z,97495.28
2022-12-04T09:50:08.500Z,97493.34
2022-12-04T09:52:52.294Z,97491.25
2022-12-04T09:55:26.027Z,97497.06
2022-12-04T09:58:02.176Z,97501.88
2022-12-04T10:00:36.667Z,97497.72
2022-12-04T10:03:14.365Z,97499.44
2022-12-04T10:06:13.119Z,97493.44
2022-12-04T10:08:47.500Z,97499.97
2022-12-04T10:11:19.934Z,97497.97
2022-12-04T10:14:04.142Z,97494.84
2022-12-04T10:16:53.328Z,97474.09
2022-12-04T10:19:42.797Z,97466.81
2022-12-04T10:22:39.663Z,97460.75
2022-12-04T10:25:43.840Z,97468.19
2022-12-04T10:28:26.619Z,97460.78
2022-12-04T10:31:01.286Z,97461.75
2022-12-04T10:33:42.284Z,97462.28
2022-12-04T10:36:16.003Z,97452.97
2022-12-04T10:38:46.977Z,97443.78
2022-12-04T10:41:26.130Z,97452.19
2022-12-04T10:44:03.453Z,97456.72
2022-12-04T10:46:44.524Z,97445.72
2022-12-04T10:49:18.667Z,97436.63
2022-12-04T10:51:57.777Z,97419.31
2022-12-04T10:54:32.082Z,97421.22
2022-12-04T10:57:25.220Z,97422.44
2022-12-04T10:59:56.232Z,97413.44
2022-12-04T11:02:33.540Z,97412.72
2022-12-04T11:05:04.639Z,97411.31
2022-12-04T11:07:49.732Z,97420.28
2022-12-04T11:10:26.834Z,97421.47
2022-12-04T11:13:05.366Z,97417.66
2022-12-04T11:15:39.489Z,97421.53
2022-12-04T11:18:14.956Z,97415.25
2022-12-04T11:20:50.167Z,97407.84
2022-12-04T11:23:21.995Z,97408.16
2022-12-04T11:25:59.331Z,97405.72
2022-12-04T11:28:43.392Z,97405.59
2022-12-04T11:31:32.465Z,97403.31
2022-12-04T11:34:08.809Z,97402.72
2022-12-04T11:36:41.216Z,97400.72
2022-12-04T11:39:20.769Z,97395.22
2022-12-04T11:41:50.701Z,97385.59
2022-12-04T11:44:33.878Z,97385.59
2022-12-04T11:47:05.898Z,97400.09
2022-12-04T11:49:42.273Z,97391.56
2022-12-04T11:52:25.272Z,97392.66
2022-12-04T11:55:00.304Z,97394.44
2022-12-04T11:57:34.225Z,97381.66
2022-12-04T12:00:12.907Z,97383.66
2022-12-04T12:02:55.746Z,97376.03
2022-12-04T12:05:39.100Z,97371.09
2022-12-04T12:08:11.325Z,97377.50
2022-12-04T12:10:58.681Z,97382.09
2022-12-04T12:13:31.663Z,97384.44
2022-12-04T12:16:09.905Z,97384.75
2022-12-04T12:18:52.018Z,97382.59
2022-12-04T12:21:25.180Z,97379.09
2022-12-04T12:24:13.267Z,97376.53
2022-12-04T12:26:46.782Z,97380.16
2022-12-04T12:29:22.257Z,97367.84
2022-12-04T12:32:03.170Z,97357.47
2022-12-04T12:34:39.809Z,97354.47
2022-12-04T12:37:40.925Z,97348.00
2022-12-04T12:40:19.452Z,97345.09
2022-12-04T12:43:00.986Z,97350.41
2022-12-04T12:45:39.823Z,97355.00
2022-12-04T12:48:21.896Z,97341.38
2022-12-04T12:51:21.915Z,97346.81
2022-12-04T12:53:51.631Z,97353.88
2022-12-04T12:56:33.904Z,97349.53
2022-12-04T12:59:07.101Z,97350.66
2022-12-04T13:01:46.320Z,97346.97
2022-12-04T13:04:44.647Z,97355.00
2022-12-04T13:07:26.357Z,97367.16
2022-12-04T13:10:01.717Z,97369.38
2022-12-04T13:12:31.921Z,97365.38
2022-12-04T13:15:03.191Z,97369.56
2022-12-04T13:17:54.600Z,97372.09
2022-12-04T13:20:29.046Z,97366.06
2022-12-04T13:23:07.842Z,97367.41
2022-12-04T13:25:52.028Z,97360.25
2022-12-04T13:28:36.642Z,97365.63
2022-12-04T13:31:12.875Z,97345.53
2022-12-04T13:34:02.353Z,97346.06
2022-12-04T13:36:54.157Z,97349.75
2022-12-04T13:39:41.067Z,97341.75
2022-12-04T13:42:26.154Z,97342.22
2022-12-04T13:44:56.952Z,97345.47
2022-12-04T13:47:35.495Z,97342.06
2022-12-04T13:50:29.452Z,97343.59
2022-12-04T13:53:04.260Z,97341.97
2022-12-04T13:55:44.997Z,97348.38
2022-12-04T13:58:29.110Z,97348.81
2022-12-04T14:01:09.324Z,97354.34
2022-12-04T14:03:47.636Z,97349.00
2022-12-04T14:09:26.258Z,97354.88
2022-12-04T14:12:04.251Z,97351.50
2022-12-04T14:17:25.793Z,97352.69
2022-12-04T14:20:18.636Z,97345.50
2022-12-04T14:23:27.845Z,97344.31
2022-12-04T14:26:02.610Z,97343.00
2022-12-04T14:28:45.912Z,97341.41
2022-12-04T14:31:31.275Z,97347.31
2022-12-04T14:34:04.940Z,97341.75
2022-12-04T14:36:37.305Z,97346.66
2022-12-04T14:39:20.722Z,97346.88
2022-12-04T14:41:57.887Z,97341.25
2022-12-04T14:44:33.129Z,97337.06
2022-12-04T14:47:15.081Z,97335.94
2022-12-04T14:50:06.279Z,97328.44
2022-12-04T14:52:42.214Z,97327.09
2022-12-04T14:55:35.459Z,97317.19
2022-12-04T14:58:27.479Z,97324.22
2022-12-04T15:01:08.314Z,97324.72
2022-12-04T15:03:47.000Z,97330.25
2022-12-04T15:06:21.971Z,97338.97
2022-12-04T15:08:54.386Z,97339.53
2022-12-04T15:11:39.318Z,97337.78
2022-12-04T15:14:16.322Z,97338.78
2022-12-04T15:16:51.404Z,97333.06
2022-12-04T15:19:31.577Z,97332.50
2022-12-04T15:22:01.304Z,97342.44
2022-12-04T15:24:33.173Z,97340.00
2022-12-04T15:27:07.476Z,97341.59
2022-12-04T15:29:49.034Z,97336.66
2022-12-04T15:32:24.776Z,97346.38
2022-12-04T15:34:58.564Z,97351.31
2022-12-04T15:37:28.602Z,97351.94
2022-12-04T15:39:58.901Z,97361.16
2022-12-04T15:42:31.707Z,97356.94
2022-12-04T15:45:03.468Z,97356.94
2022-12-04T15:47:39.287Z,97349.44
2022-12-04T15:50:40.766Z,97353.72
2022-12-04T15:53:22.164Z,97356.44
2022-12-04T15:55:53.088Z,97363.09
2022-12-04T15:58:24.207Z,97364.72
2022-12-04T16:01:00.968Z,97361.53
2022-12-04T16:03:34.574Z,97354.97
2022-12-04T16:06:15.231Z,97368.19
2022-12-04T16:08:47.466Z,97366.41
2022-12-04T16:11:31.808Z,97351.84
2022-12-04T16:14:10.516Z,97353.34
2022-12-04T16:16:45.301Z,97348.19
2022-12-04T16:19:20.337Z,97358.41
2022-12-04T16:21:50.471Z,97360.25
2022-12-04T16:24:32.000Z,97370.59
2022-12-04T16:27:08.569Z,97361.63
2022-12-04T16:29:48.895Z,97365.22
2022-12-04T16:32:30.131Z,97368.53
2022-12-04T16:35:02.322Z,97369.75
2022-12-04T16:37:32.185Z,97374.94
2022-12-04T16:40:13.742Z,97383.22
2022-12-04T16:42:49.584Z,97388.00
2022-12-04T16:45:24.729Z,97394.13
2022-12-04T16:48:11.365Z,97392.06
2022-12-04T16:50:42.029Z,97399.81
2022-12-04T16:53:15.032Z,97390.72
2022-12-04T16:55:50.069Z,97399.06
2022-12-04T16:58:21.130Z,97396.66
2022-12-04T17:01:00.557Z,97406.22
2022-12-04T17:03:33.615Z,97404.34
2022-12-04T17:06:03.495Z,97405.63
2022-12-04T17:08:59.688Z,97402.47
2022-12-04T17:11:29.148Z,97403.81
2022-12-04T17:13:59.473Z,97399.94
2022-12-04T17:16:29.968Z,97412.44
2022-12-04T17:19:01.037Z,97399.94
2022-12-04T17:21:32.283Z,97399.72
2022-12-04T17:24:03.681Z,97399.81
2022-12-04T17:26:42.691Z,97397.16
2022-12-04T17:29:27.189Z,97397.38
2022-12-04T17:32:01.179Z,97402.81
2022-12-04T17:34:37.114Z,97402.22
2022-12-04T17:37:08.304Z,97399.38
2022-12-04T17:39:37.893Z,97400.31
2022-12-04T17:42:07.243Z,97398.66
2022-12-04T17:44:37.862Z,97394.78
2022-12-04T17:47:07.258Z,97402.09
2022-12-04T17:49:37.717Z,97391.22
2022-12-04T17:52:08.823Z,97383.09
2022-12-04T17:54:38.873Z,97390.72
2022-12-04T17:57:10.038Z,97383.72
2022-12-04T17:59:39.397Z,97376.72
2022-12-04T18:02:14.645Z,97387.19
2022-12-04T18:04:44.764Z,97388.47
2022-12-04T18:07:13.504Z,97383.88
2022-12-04T18:09:42.475Z,97383.81
2022-12-04T18:12:14.564Z,97381.81
2022-12-04T18:14:46.140Z,97389.66
2022-12-04T18:17:20.156Z,97388.81
2022-12-04T18:19:55.384Z,97394.09
2022-12-04T18:22:29.779Z,97401.38
2022-12-04T18:24:59.473Z,97411.59
2022-12-04T18:27:30.961Z,97400.09
2022-12-04T18:30:02.943Z,97394.38
2022-12-04T18:32:32.909Z,97401.09
2022-12-04T18:35:06.499Z,97400.09
2022-12-04T18:37:51.075Z,97394.94
2022-12-04T18:40:37.959Z,97394.38
2022-12-04T18:43:08.036Z,97393.31
2022-12-04T18:45:39.406Z,97399.72
2022-12-04T18:48:09.773Z,97404.22
2022-12-04T18:50:41.191Z,97389.09
2022-12-04T18:53:11.225Z,97395.09
2022-12-04T18:55:43.709Z,97388.53
2022-12-04T18:58:18.429Z,97392.88
2022-12-04T19:00:49.731Z,97387.44
2022-12-04T19:03:25.026Z,97377.88
2022-12-04T19:05:59.214Z,97386.16
2022-12-04T19:08:33.714Z,97387.59
2022-12-04T19:11:08.936Z,97394.38
2022-12-04T19:13:38.276Z,97384.00
2022-12-04T19:16:13.495Z,97397.44
2022-12-04T19:18:42.900Z,97381.03
2022-12-04T19:21:20.951Z,97384.00
2022-12-04T19:23:55.301Z,97384.97
2022-12-04T19:26:28.895Z,97385.66
2022-12-04T19:28:57.739Z,97391.97
2022-12-04T19:31:30.467Z,97399.53
2022-12-04T19:34:00.687Z,97388.03
2022-12-04T19:36:34.568Z,97395.88
2022-12-04T19:39:07.530Z,97386.19
2022-12-04T19:41:37.707Z,97391.47
2022-12-04T19:44:46.777Z,97404.47
2022-12-04T19:47:02.481Z,97400.38
2022-12-04T19:49:34.921Z,97404.59
2022-12-04T19:52:10.660Z,97406.88
2022-12-04T19:54:41.720Z,97404.50
2022-12-04T19:57:10.906Z,97401.69
2022-12-04T19:59:46.208Z,97409.94
2022-12-04T20:02:18.751Z,97411.66
2022-12-04T20:04:52.984Z,97409.72
2022-12-04T20:07:23.415Z,97407.22
2022-12-04T20:09:54.138Z,97416.63
2022-12-04T20:12:24.026Z,97420.09
2022-12-04T20:15:06.901Z,97411.38
2022-12-04T20:17:37.730Z,97420.97
2022-12-04T20:20:11.312Z,97416.03
2022-12-04T20:23:09.882Z,97412.94
2022-12-04T20:28:27.198Z,97401.94
2022-12-04T20:30:57.910Z,97399.50
2022-12-04T20:33:27.997Z,97397.69
2022-12-04T20:36:03.060Z,97390.38
2022-12-04T20:38:47.658Z,97395.16
2022-12-04T20:41:20.032Z,97383.22
2022-12-04T20:43:56.596Z,97383.22
2022-12-04T20:46:28.255Z,97384.75
2022-12-04T20:49:07.595Z,97388.31
2022-12-04T20:51:37.515Z,97372.28
2022-12-04T20:54:22.575Z,97383.59
2022-12-04T20:56:56.022Z,97378.72
2022-12-04T20:59:26.707Z,97380.09
2022-12-04T21:01:56.998Z,97374.59
2022-12-04T21:04:27.357Z,97367.16
2022-12-04T21:06:59.237Z,97370.47
2022-12-04T21:09:38.189Z,97371.81
2022-12-04T21:12:28.885Z,97373.19
2022-12-04T21:15:12.040Z,97384.53
2022-12-04T21:17:45.320Z,97380.53
2022-12-04T21:20:17.776Z,97379.44
2022-12-04T21:22:51.233Z,97381.28
2022-12-04T21:25:33.998Z,97365.88
2022-12-04T21:28:07.803Z,97386.16
2022-12-04T21:30:39.747Z,97384.28
2022-12-04T21:33:12.574Z,97382.81
2022-12-04T21:35:55.716Z,97387.91
2022-12-04T21:38:29.538Z,97395.72
2022-12-04T21:41:01.715Z,97395.22
2022-12-04T21:43:35.445Z,97387.03
2022-12-04T21:46:13.095Z,97390.88
2022-12-04T21:48:49.913Z,97399.66
2022-12-04T21:51:55.685Z,97401.16
2022-12-04T21:54:20.190Z,97403.81
2022-12-04T21:56:56.319Z,97408.66
2022-12-04T21:59:25.159Z,97413.03
2022-12-04T22:01:55.979Z,97414.00
2022-12-04T22:04:25.828Z,97415.34
2022-12-04T22:06:56.914Z,97416.78
2022-12-04T22:09:29.214Z,97410.50
2022-12-04T22:11:59.616Z,97416.19
2022-12-04T22:14:30.835Z,97422.53
2022-12-04T22:16:59.832Z,97418.78
2022-12-04T22:19:28.702Z,97414.00
2022-12-04T22:21:57.625Z,97417.81
2022-12-04T22:24:28.831Z,97418.84
2022-12-04T22:27:00.396Z,97428.22
2022-12-04T22:32:17.931Z,97430.28
2022-12-04T22:34:49.085Z,97430.09
2022-12-04T22:37:19.090Z,97429.16
2022-12-04T22:39:47.890Z,97433.50
2022-12-04T22:42:18.084Z,97436.06
2022-12-04T22:44:50.687Z,97435.41
2022-12-04T22:47:19.478Z,97430.72
2022-12-04T22:49:48.721Z,97438.44
2022-12-04T22:52:17.518Z,97448.50
2022-12-04T22:54:51.235Z,97440.19
2022-12-04T22:57:21.444Z,97445.28
2022-12-04T22:59:50.411Z,97446.56
2022-12-04T23:02:20.174Z,97444.19
2022-12-04T23:04:49.338Z,97444.28
2022-12-04T23:07:19.738Z,97442.97
2022-12-04T23:09:48.536Z,97436.06
2022-12-04T23:12:17.271Z,97434.72
2022-12-04T23:14:47.216Z,97442.78
2022-12-04T23:17:15.634Z,97432.72
2022-12-04T23:19:44.337Z,97436.22
2022-12-04T23:22:12.991Z,97431.28
2022-12-04T23:24:42.179Z,97435.28
2022-12-04T23:27:10.953Z,97434.78
2022-12-04T23:29:55.213Z,97429.59
2022-12-04T23:32:25.310Z,97437.50
2022-12-04T23:34:54.366Z,97432.31
2022-12-04T23:37:23.236Z,97426.19
2022-12-04T23:39:52.207Z,97429.59
2022-12-04T23:42:20.870Z,97438.72
2022-12-04T23:44:49.856Z,97434.66
2022-12-04T23:47:20.085Z,97439.94
2022-12-04T23:49:50.543Z,97437.59
2022-12-04T23:52:19.574Z,97447.56
2022-12-04T23:54:48.516Z,97439.28
2022-12-04T23:57:17.533Z,97443.56
2022-12-04T23:59:48.686Z,97444.50
